sensor_id;sensor_type;location;lat;lon;timestamp;pressure;altitude;pressure_sealevel;temperature;humidity
68654;BME280;55636;51.108;13.622;2023-01-01T00:00:33;100252.50;;;16.47;43.33
68654;BME280;55636;51.108;13.622;2023-01-01T00:01:35;100260.84;;;16.47;43.35
68654;BME280;55636;51.108;13.622;2023-01-01T00:02:41;100250.00;;;16.45;42.97
68654;BME280;55636;51.108;13.622;2023-01-01T00:03:48;100240.00;;;16.44;43.11
68654;BME280;55636;51.108;13.622;2023-01-01T00:04:50;100246.72;;;16.43;42.94
68654;BME280;55636;51.108;13.622;2023-01-01T00:05:53;100239.47;;;16.42;43.30
68654;BME280;55636;51.108;13.622;2023-01-01T00:06:55;100243.09;;;16.43;43.27
68654;BME280;55636;51.108;13.622;2023-01-01T00:07:57;100244.75;;;16.44;42.98
68654;BME280;55636;51.108;13.622;2023-01-01T00:09:06;100241.16;;;16.43;43.04
68654;BME280;55636;51.108;13.622;2023-01-01T00:10:26;100244.75;;;16.44;43.05
68654;BME280;55636;51.108;13.622;2023-01-01T00:11:29;100252.28;;;16.43;43.09
68654;BME280;55636;51.108;13.622;2023-01-01T00:12:33;100248.66;;;16.43;43.01
68654;BME280;55636;51.108;13.622;2023-01-01T00:13:37;100250.63;;;16.42;43.06
68654;BME280;55636;51.108;13.622;2023-01-01T00:14:40;100248.97;;;16.41;42.90
68654;BME280;55636;51.108;13.622;2023-01-01T00:15:45;100241.44;;;16.42;42.85
68654;BME280;55636;51.108;13.622;2023-01-01T00:16:47;100254.53;;;16.41;42.83
68654;BME280;55636;51.108;13.622;2023-01-01T00:17:49;100248.97;;;16.41;42.97
68654;BME280;55636;51.108;13.622;2023-01-01T00:18:51;100244.81;;;16.39;42.76
68654;BME280;55636;51.108;13.622;2023-01-01T00:19:54;100234.50;;;16.39;42.67
68654;BME280;55636;51.108;13.622;2023-01-01T00:21:11;100242.84;;;16.39;43.05
68654;BME280;55636;51.108;13.622;2023-01-01T00:22:14;100244.81;;;16.39;43.00
68654;BME280;55636;51.108;13.622;2023-01-01T00:23:37;100242.03;;;16.39;42.91
68654;BME280;55636;51.108;13.622;2023-01-01T00:24:39;100238.13;;;16.40;42.71
68654;BME280;55636;51.108;13.622;2023-01-01T00:25:42;100240.91;;;16.40;42.86
68654;BME280;55636;51.108;13.622;2023-01-01T00:26:45;100241.22;;;16.38;42.80
68654;BME280;55636;51.108;13.622;2023-01-01T00:27:47;100237.28;;;16.39;42.80
68654;BME280;55636;51.108;13.622;2023-01-01T00:28:49;100240.91;;;16.40;42.74
68654;BME280;55636;51.108;13.622;2023-01-01T00:29:52;100244.81;;;16.39;42.71
68654;BME280;55636;51.108;13.622;2023-01-01T00:30:54;100228.63;;;16.41;42.92
68654;BME280;55636;51.108;13.622;2023-01-01T00:31:56;100243.69;;;16.40;42.75
68654;BME280;55636;51.108;13.622;2023-01-01T00:32:58;100236.47;;;16.39;42.68
68654;BME280;55636;51.108;13.622;2023-01-01T00:34:01;100241.72;;;16.40;42.79
68654;BME280;55636;51.108;13.622;2023-01-01T00:35:03;100242.56;;;16.41;42.51
68654;BME280;55636;51.108;13.622;2023-01-01T00:36:15;100248.97;;;16.41;42.81
68654;BME280;55636;51.108;13.622;2023-01-01T00:37:18;100242.28;;;16.42;42.79
68654;BME280;55636;51.108;13.622;2023-01-01T00:38:20;100250.63;;;16.42;42.44
68654;BME280;55636;51.108;13.622;2023-01-01T00:39:22;100231.13;;;16.42;42.66
68654;BME280;55636;51.108;13.622;2023-01-01T00:40:25;100242.56;;;16.41;42.46
68654;BME280;55636;51.108;13.622;2023-01-01T00:41:27;100252.28;;;16.43;42.48
68654;BME280;55636;51.108;13.622;2023-01-01T00:42:29;100241.16;;;16.43;42.43
68654;BME280;55636;51.108;13.622;2023-01-01T00:43:32;100243.94;;;16.43;42.48
68654;BME280;55636;51.108;13.622;2023-01-01T00:44:34;100242.78;;;16.44;42.60
68654;BME280;55636;51.108;13.622;2023-01-01T00:45:36;100241.97;;;16.44;42.63
68654;BME280;55636;51.108;13.622;2023-01-01T00:46:41;100247.84;;;16.42;42.39
68654;BME280;55636;51.108;13.622;2023-01-01T00:47:43;100237.81;;;16.41;42.42
68654;BME280;55636;51.108;13.622;2023-01-01T00:48:45;100253.41;;;16.42;42.31
68654;BME280;55636;51.108;13.622;2023-01-01T00:49:47;100245.06;;;16.42;42.42
68654;BME280;55636;51.108;13.622;2023-01-01T00:50:51;100251.44;;;16.43;42.38
68654;BME280;55636;51.108;13.622;2023-01-01T00:51:53;100251.44;;;16.43;42.35
68654;BME280;55636;51.108;13.622;2023-01-01T00:52:55;100263.44;;;16.43;42.14
68654;BME280;55636;51.108;13.622;2023-01-01T00:54:00;100258.69;;;16.44;42.25
68654;BME280;55636;51.108;13.622;2023-01-01T00:55:05;100255.91;;;16.44;42.31
68654;BME280;55636;51.108;13.622;2023-01-01T00:56:08;100253.94;;;16.44;41.92
68654;BME280;55636;51.108;13.622;2023-01-01T00:57:10;100255.91;;;16.44;41.88
68654;BME280;55636;51.108;13.622;2023-01-01T00:58:13;100253.94;;;16.44;42.10
68654;BME280;55636;51.108;13.622;2023-01-01T00:59:15;100255.09;;;16.43;41.89
68654;BME280;55636;51.108;13.622;2023-01-01T01:00:17;100267.88;;;16.44;41.91
68654;BME280;55636;51.108;13.622;2023-01-01T01:01:21;100267.06;;;16.44;41.77
68654;BME280;55636;51.108;13.622;2023-01-01T01:02:23;100261.47;;;16.44;42.14
68654;BME280;55636;51.108;13.622;2023-01-01T01:03:26;100257.03;;;16.43;42.08
68654;BME280;55636;51.108;13.622;2023-01-01T01:04:34;100270.16;;;16.42;42.11
68654;BME280;55636;51.108;13.622;2023-01-01T01:05:37;100266.22;;;16.43;41.71
68654;BME280;55636;51.108;13.622;2023-01-01T01:06:39;100272.94;;;16.42;41.79
68654;BME280;55636;51.108;13.622;2023-01-01T01:07:41;100264.88;;;16.41;41.92
68654;BME280;55636;51.108;13.622;2023-01-01T01:08:45;100272.09;;;16.42;41.92
68654;BME280;55636;51.108;13.622;2023-01-01T01:09:48;100272.94;;;16.42;41.93
68654;BME280;55636;51.108;13.622;2023-01-01T01:10:51;100276.53;;;16.43;41.55
68654;BME280;55636;51.108;13.622;2023-01-01T01:11:54;100269.28;;;16.42;41.75
68654;BME280;55636;51.108;13.622;2023-01-01T01:13:16;100274.06;;;16.41;41.72
68654;BME280;55636;51.108;13.622;2023-01-01T01:14:18;100275.19;;;16.40;41.51
68654;BME280;55636;51.108;13.622;2023-01-01T01:15:21;100277.66;;;16.42;41.63
68654;BME280;55636;51.108;13.622;2023-01-01T01:16:33;100275.19;;;16.40;41.43
68654;BME280;55636;51.108;13.622;2023-01-01T01:17:35;100276.84;;;16.41;41.33
68654;BME280;55636;51.108;13.622;2023-01-01T01:18:38;100284.66;;;16.39;41.33
68654;BME280;55636;51.108;13.622;2023-01-01T01:19:40;100290.25;;;16.39;41.62
68654;BME280;55636;51.108;13.622;2023-01-01T01:20:49;100283.84;;;16.39;41.24
68654;BME280;55636;51.108;13.622;2023-01-01T01:21:51;100291.91;;;16.40;41.54
68654;BME280;55636;51.108;13.622;2023-01-01T01:22:53;100297.47;;;16.40;41.24
68654;BME280;55636;51.108;13.622;2023-01-01T01:23:57;100293.88;;;16.40;41.18
68654;BME280;55636;51.108;13.622;2023-01-01T01:25:00;100297.47;;;16.40;41.17
68654;BME280;55636;51.108;13.622;2023-01-01T01:26:20;100297.47;;;16.40;41.57
68654;BME280;55636;51.108;13.622;2023-01-01T01:27:23;100305.34;;;16.38;41.32
68654;BME280;55636;51.108;13.622;2023-01-01T01:28:26;100296.97;;;16.38;41.01
68654;BME280;55636;51.108;13.622;2023-01-01T01:29:28;100309.75;;;16.39;41.15
68654;BME280;55636;51.108;13.622;2023-01-01T01:30:30;100307.28;;;16.38;41.15
68654;BME280;55636;51.108;13.622;2023-01-01T01:31:33;100316.50;;;16.38;41.58
68654;BME280;55636;51.108;13.622;2023-01-01T01:32:38;100306.16;;;16.39;41.22
68654;BME280;55636;51.108;13.622;2023-01-01T01:33:43;100300.56;;;16.39;41.54
68654;BME280;55636;51.108;13.622;2023-01-01T01:34:46;100312.53;;;16.39;41.47
68654;BME280;55636;51.108;13.622;2023-01-01T01:35:51;100316.50;;;16.38;41.42
68654;BME280;55636;51.108;13.622;2023-01-01T01:36:53;100318.44;;;16.38;41.27
68654;BME280;55636;51.108;13.622;2023-01-01T01:37:56;100315.63;;;16.38;41.33
68654;BME280;55636;51.108;13.622;2023-01-01T01:38:58;100318.44;;;16.38;41.52
68654;BME280;55636;51.108;13.622;2023-01-01T01:40:00;100315.94;;;16.36;41.59
68654;BME280;55636;51.108;13.622;2023-01-01T01:41:03;100315.94;;;16.36;41.52
68654;BME280;55636;51.108;13.622;2023-01-01T01:42:05;100307.03;;;16.34;41.54
68654;BME280;55636;51.108;13.622;2023-01-01T01:43:20;100308.72;;;16.35;41.56
68654;BME280;55636;51.108;13.622;2023-01-01T01:45:44;100307.03;;;16.34;41.59
68654;BME280;55636;51.108;13.622;2023-01-01T01:46:46;100310.97;;;16.33;41.56
68654;BME280;55636;51.108;13.622;2023-01-01T01:47:51;100302.91;;;16.31;41.59
68654;BME280;55636;51.108;13.622;2023-01-01T01:49:01;100306.00;;;16.30;41.56
68654;BME280;55636;51.108;13.622;2023-01-01T01:50:15;100314.66;;;16.28;41.54
68654;BME280;55636;51.108;13.622;2023-01-01T01:51:29;100322.19;;;16.28;41.35
68654;BME280;55636;51.108;13.622;2023-01-01T01:52:36;100323.31;;;16.27;41.58
68654;BME280;55636;51.108;13.622;2023-01-01T01:53:44;100323.63;;;16.25;41.33
68654;BME280;55636;51.108;13.622;2023-01-01T01:54:47;100325.56;;;16.25;41.75
68654;BME280;55636;51.108;13.622;2023-01-01T01:55:55;100333.94;;;16.25;41.32
68654;BME280;55636;51.108;13.622;2023-01-01T01:57:01;100328.16;;;16.21;41.39
68654;BME280;55636;51.108;13.622;2023-01-01T01:58:08;100319.25;;;16.19;41.29
68654;BME280;55636;51.108;13.622;2023-01-01T01:59:12;100323.16;;;16.18;41.23
68654;BME280;55636;51.108;13.622;2023-01-01T02:00:15;100318.19;;;16.15;41.31
68654;BME280;55636;51.108;13.622;2023-01-01T02:01:17;100322.09;;;16.14;41.40
68654;BME280;55636;51.108;13.622;2023-01-01T02:02:31;100319.31;;;16.14;41.52
68654;BME280;55636;51.108;13.622;2023-01-01T02:03:47;100326.84;;;16.13;41.49
68654;BME280;55636;51.108;13.622;2023-01-01T02:04:51;100322.41;;;16.12;41.57
68654;BME280;55636;51.108;13.622;2023-01-01T02:05:53;100329.09;;;16.11;41.62
68654;BME280;55636;51.108;13.622;2023-01-01T02:06:55;100324.97;;;16.09;41.73
68654;BME280;55636;51.108;13.622;2023-01-01T02:07:58;100319.38;;;16.09;41.57
68654;BME280;55636;51.108;13.622;2023-01-01T02:09:06;100318.88;;;16.07;41.46
68654;BME280;55636;51.108;13.622;2023-01-01T02:10:09;100318.03;;;16.06;41.48
68654;BME280;55636;51.108;13.622;2023-01-01T02:11:11;100313.88;;;16.04;41.54
68654;BME280;55636;51.108;13.622;2023-01-01T02:12:21;100316.16;;;16.02;41.60
68654;BME280;55636;51.108;13.622;2023-01-01T02:13:23;100316.16;;;16.02;41.64
68654;BME280;55636;51.108;13.622;2023-01-01T02:14:25;100316.41;;;16.00;41.33
68654;BME280;55636;51.108;13.622;2023-01-01T02:15:30;100316.41;;;16.00;41.60
68654;BME280;55636;51.108;13.622;2023-01-01T02:16:43;100315.06;;;15.97;41.46
68654;BME280;55636;51.108;13.622;2023-01-01T02:17:55;100323.41;;;15.97;41.52
68654;BME280;55636;51.108;13.622;2023-01-01T02:19:16;100309.78;;;15.96;41.77
68654;BME280;55636;51.108;13.622;2023-01-01T02:20:59;100304.84;;;15.93;41.73
68654;BME280;55636;51.108;13.622;2023-01-01T02:22:28;100315.13;;;15.92;41.63
68654;BME280;55636;51.108;13.622;2023-01-01T02:23:47;100312.94;;;15.89;41.71
68654;BME280;55636;51.108;13.622;2023-01-01T02:26:41;100307.13;;;15.86;41.63
68654;BME280;55636;51.108;13.622;2023-01-01T02:29:04;100302.19;;;15.83;41.69
68654;BME280;55636;51.108;13.622;2023-01-01T02:30:11;100302.47;;;15.81;41.45
68654;BME280;55636;51.108;13.622;2023-01-01T02:31:20;100301.94;;;15.79;41.67
68654;BME280;55636;51.108;13.622;2023-01-01T02:32:39;100315.03;;;15.78;41.42
68654;BME280;55636;51.108;13.622;2023-01-01T02:33:43;100309.47;;;15.78;41.81
68654;BME280;55636;51.108;13.622;2023-01-01T02:34:54;100310.03;;;15.75;41.51
68654;BME280;55636;51.108;13.622;2023-01-01T02:36:01;100308.41;;;15.74;41.57
68654;BME280;55636;51.108;13.622;2023-01-01T02:37:07;100301.19;;;15.73;41.65
68654;BME280;55636;51.108;13.622;2023-01-01T02:38:29;100305.06;;;15.72;41.84
68654;BME280;55636;51.108;13.622;2023-01-01T02:39:35;100316.53;;;15.71;41.47
68654;BME280;55636;51.108;13.622;2023-01-01T02:40:45;100303.13;;;15.68;41.56
68654;BME280;55636;51.108;13.622;2023-01-01T02:41:53;100307.06;;;15.67;41.61
68654;BME280;55636;51.108;13.622;2023-01-01T02:42:58;100306.22;;;15.66;41.88
68654;BME280;55636;51.108;13.622;2023-01-01T02:44:02;100308.50;;;15.64;41.42
68654;BME280;55636;51.108;13.622;2023-01-01T02:45:04;100311.53;;;15.62;41.71
68654;BME280;55636;51.108;13.622;2023-01-01T02:46:16;100308.75;;;15.62;41.87
68654;BME280;55636;51.108;13.622;2023-01-01T02:47:20;100310.72;;;15.62;41.39
68654;BME280;55636;51.108;13.622;2023-01-01T02:48:45;100307.13;;;15.61;41.55
68654;BME280;55636;51.108;13.622;2023-01-01T02:50:16;100300.72;;;15.61;41.94
68654;BME280;55636;51.108;13.622;2023-01-01T02:51:38;100309.38;;;15.59;41.69
68654;BME280;55636;51.108;13.622;2023-01-01T02:53:22;100308.56;;;15.59;41.90
68654;BME280;55636;51.108;13.622;2023-01-01T02:54:51;100302.44;;;15.57;41.49
68654;BME280;55636;51.108;13.622;2023-01-01T02:56:06;100311.63;;;15.57;41.73
68654;BME280;55636;51.108;13.622;2023-01-01T02:57:27;100305.22;;;15.57;41.61
68654;BME280;55636;51.108;13.622;2023-01-01T02:58:37;100306.63;;;15.54;41.61
68654;BME280;55636;51.108;13.622;2023-01-01T03:00:04;100309.41;;;15.54;41.42
68654;BME280;55636;51.108;13.622;2023-01-01T03:01:45;100313.63;;;15.52;41.82
68654;BME280;55636;51.108;13.622;2023-01-01T03:03:18;100307.25;;;15.51;41.78
68654;BME280;55636;51.108;13.622;2023-01-01T03:05:01;100313.94;;;15.50;41.71
68654;BME280;55636;51.108;13.622;2023-01-01T03:06:23;100313.13;;;15.50;41.83
68654;BME280;55636;51.108;13.622;2023-01-01T03:08:12;100304.22;;;15.47;41.73
68654;BME280;55636;51.108;13.622;2023-01-01T03:09:26;100301.72;;;15.46;41.73
68654;BME280;55636;51.108;13.622;2023-01-01T03:13:42;100306.75;;;15.44;41.37
68654;BME280;55636;51.108;13.622;2023-01-01T03:14:57;100305.94;;;15.43;41.48
68654;BME280;55636;51.108;13.622;2023-01-01T03:16:08;100304.25;;;15.42;41.26
68654;BME280;55636;51.108;13.622;2023-01-01T03:17:26;100299.81;;;15.41;41.37
68654;BME280;55636;51.108;13.622;2023-01-01T03:20:16;100308.16;;;15.41;41.17
68654;BME280;55636;51.108;13.622;2023-01-01T03:21:20;100302.91;;;15.40;41.34
68654;BME280;55636;51.108;13.622;2023-01-01T03:22:31;100309.88;;;15.37;41.07
68654;BME280;55636;51.108;13.622;2023-01-01T03:23:40;100304.31;;;15.37;41.24
68654;BME280;55636;51.108;13.622;2023-01-01T03:24:54;100304.88;;;15.39;41.08
68654;BME280;55636;51.108;13.622;2023-01-01T03:26:00;100301.22;;;15.39;40.85
68654;BME280;55636;51.108;13.622;2023-01-01T03:28:22;100308.78;;;15.38;41.16
68654;BME280;55636;51.108;13.622;2023-01-01T03:29:28;100302.38;;;15.38;41.08
68654;BME280;55636;51.108;13.622;2023-01-01T03:30:34;100297.94;;;15.37;41.25
68654;BME280;55636;51.108;13.622;2023-01-01T03:31:42;100299.88;;;15.36;41.09
68654;BME280;55636;51.108;13.622;2023-01-01T03:32:52;100295.44;;;15.35;41.03
68654;BME280;55636;51.108;13.622;2023-01-01T03:34:05;100302.66;;;15.36;40.99
68654;BME280;55636;51.108;13.622;2023-01-01T03:35:09;100286.81;;;15.37;41.23
68654;BME280;55636;51.108;13.622;2023-01-01T03:36:29;100293.50;;;15.36;41.19
68654;BME280;55636;51.108;13.622;2023-01-01T03:37:35;100293.50;;;15.36;40.94
68654;BME280;55636;51.108;13.622;2023-01-01T03:38:40;100304.31;;;15.37;41.29
68654;BME280;55636;51.108;13.622;2023-01-01T03:39:48;100302.66;;;15.36;41.18
68654;BME280;55636;51.108;13.622;2023-01-01T03:40:57;100300.72;;;15.37;41.09
68654;BME280;55636;51.108;13.622;2023-01-01T03:42:14;100306.28;;;15.37;41.37
68654;BME280;55636;51.108;13.622;2023-01-01T03:43:40;100296.56;;;15.34;41.25
68654;BME280;55636;51.108;13.622;2023-01-01T03:44:51;100297.38;;;15.35;41.07
68654;BME280;55636;51.108;13.622;2023-01-01T03:45:59;100303.81;;;15.35;41.23
68654;BME280;55636;51.108;13.622;2023-01-01T03:47:04;100301.03;;;15.35;41.31
68654;BME280;55636;51.108;13.622;2023-01-01T03:48:08;100291.00;;;15.34;41.11
68654;BME280;55636;51.108;13.622;2023-01-01T03:49:11;100295.72;;;15.34;41.02
68654;BME280;55636;51.108;13.622;2023-01-01T03:50:20;100304.06;;;15.34;41.21
68654;BME280;55636;51.108;13.622;2023-01-01T03:54:14;100303.25;;;15.33;41.41
68654;BME280;55636;51.108;13.622;2023-01-01T03:55:38;100304.38;;;15.32;41.21
68654;BME280;55636;51.108;13.622;2023-01-01T03:56:51;100301.59;;;15.32;41.60
68654;BME280;55636;51.108;13.622;2023-01-01T03:58:01;100304.38;;;15.32;41.62
68654;BME280;55636;51.108;13.622;2023-01-01T03:59:06;100307.16;;;15.32;41.51
68654;BME280;55636;51.108;13.622;2023-01-01T04:00:17;100303.56;;;15.31;41.66
68654;BME280;55636;51.108;13.622;2023-01-01T04:01:25;100306.34;;;15.31;41.54
68654;BME280;55636;51.108;13.622;2023-01-01T04:02:37;100302.69;;;15.31;41.23
68654;BME280;55636;51.108;13.622;2023-01-01T04:03:42;100312.19;;;15.30;41.40
68654;BME280;55636;51.108;13.622;2023-01-01T04:04:46;100303.00;;;15.29;41.66
68654;BME280;55636;51.108;13.622;2023-01-01T04:05:50;100309.41;;;15.30;41.78
68654;BME280;55636;51.108;13.622;2023-01-01T04:06:53;100312.47;;;15.28;41.17
68654;BME280;55636;51.108;13.622;2023-01-01T04:07:59;100313.63;;;15.27;41.22
68654;BME280;55636;51.108;13.622;2023-01-01T04:09:03;100315.56;;;15.27;41.35
68654;BME280;55636;51.108;13.622;2023-01-01T04:10:09;100318.34;;;15.27;41.54
68654;BME280;55636;51.108;13.622;2023-01-01T04:11:22;100311.09;;;15.26;41.54
68654;BME280;55636;51.108;13.622;2023-01-01T04:12:52;100316.66;;;15.26;41.40
68654;BME280;55636;51.108;13.622;2023-01-01T04:13:54;100316.66;;;15.26;41.21
68654;BME280;55636;51.108;13.622;2023-01-01T04:14:57;100310.59;;;15.24;41.41
68654;BME280;55636;51.108;13.622;2023-01-01T04:15:59;100310.03;;;15.22;41.48
68654;BME280;55636;51.108;13.622;2023-01-01T04:17:03;100319.22;;;15.22;41.47
68654;BME280;55636;51.108;13.622;2023-01-01T04:18:06;100315.09;;;15.20;41.45
68654;BME280;55636;51.108;13.622;2023-01-01T04:19:08;100313.41;;;15.19;41.35
68654;BME280;55636;51.108;13.622;2023-01-01T04:20:11;100308.16;;;15.17;41.39
68654;BME280;55636;51.108;13.622;2023-01-01T04:21:13;100311.75;;;15.18;41.71
68654;BME280;55636;51.108;13.622;2023-01-01T04:22:15;100315.66;;;15.17;41.67
68654;BME280;55636;51.108;13.622;2023-01-01T04:23:19;100308.44;;;15.15;41.79
68654;BME280;55636;51.108;13.622;2023-01-01T04:24:21;100323.47;;;15.14;41.52
68654;BME280;55636;51.108;13.622;2023-01-01T04:25:25;100314.56;;;15.12;41.55
68654;BME280;55636;51.108;13.622;2023-01-01T04:26:28;100320.16;;;15.12;41.70
68654;BME280;55636;51.108;13.622;2023-01-01T04:27:30;100320.44;;;15.11;41.77
68654;BME280;55636;51.108;13.622;2023-01-01T04:28:32;100319.63;;;15.10;41.41
68654;BME280;55636;51.108;13.622;2023-01-01T04:29:34;100320.75;;;15.09;41.78
68654;BME280;55636;51.108;13.622;2023-01-01T04:30:37;100317.09;;;15.09;41.41
68654;BME280;55636;51.108;13.622;2023-01-01T04:31:38;100320.19;;;15.07;41.66
68654;BME280;55636;51.108;13.622;2023-01-01T04:32:41;100326.88;;;15.06;41.67
68654;BME280;55636;51.108;13.622;2023-01-01T04:33:43;100318.81;;;15.05;41.66
68654;BME280;55636;51.108;13.622;2023-01-01T04:34:45;100320.78;;;15.04;41.50
68654;BME280;55636;51.108;13.622;2023-01-01T04:35:48;100316.63;;;15.02;41.52
68654;BME280;55636;51.108;13.622;2023-01-01T04:36:50;100334.44;;;15.01;41.51
68654;BME280;55636;51.108;13.622;2023-01-01T04:37:52;100331.94;;;14.99;41.84
68654;BME280;55636;51.108;13.622;2023-01-01T04:38:55;100333.63;;;15.00;41.92
68654;BME280;55636;51.108;13.622;2023-01-01T04:39:57;100331.09;;;14.98;41.69
68654;BME280;55636;51.108;13.622;2023-01-01T04:41:04;100330.28;;;14.98;41.75
68654;BME280;55636;51.108;13.622;2023-01-01T04:42:06;100329.16;;;14.99;41.90
68654;BME280;55636;51.108;13.622;2023-01-01T04:43:08;100327.78;;;14.96;41.76
68654;BME280;55636;51.108;13.622;2023-01-01T04:44:11;100323.34;;;14.95;41.76
68654;BME280;55636;51.108;13.622;2023-01-01T04:45:13;100331.69;;;14.95;41.82
68654;BME280;55636;51.108;13.622;2023-01-01T04:46:18;100330.03;;;14.94;41.89
68654;BME280;55636;51.108;13.622;2023-01-01T04:47:20;100325.63;;;14.93;41.79
68654;BME280;55636;51.108;13.622;2023-01-01T04:48:23;100325.06;;;14.91;41.94
68654;BME280;55636;51.108;13.622;2023-01-01T04:49:26;100332.28;;;14.92;41.87
68654;BME280;55636;51.108;13.622;2023-01-01T04:50:29;100326.72;;;14.92;41.82
68654;BME280;55636;51.108;13.622;2023-01-01T04:51:31;100319.50;;;14.91;41.83
68654;BME280;55636;51.108;13.622;2023-01-01T04:52:33;100327.03;;;14.91;41.79
68654;BME280;55636;51.108;13.622;2023-01-01T04:53:35;100326.19;;;14.90;41.85
68654;BME280;55636;51.108;13.622;2023-01-01T04:54:38;100330.91;;;14.90;41.87
68654;BME280;55636;51.108;13.622;2023-01-01T04:55:40;100330.38;;;14.88;41.66
68654;BME280;55636;51.108;13.622;2023-01-01T04:56:42;100327.59;;;14.88;41.84
68654;BME280;55636;51.108;13.622;2023-01-01T04:57:44;100335.94;;;14.88;41.91
68654;BME280;55636;51.108;13.622;2023-01-01T04:58:49;100325.09;;;14.86;41.81
68654;BME280;55636;51.108;13.622;2023-01-01T04:59:51;100328.69;;;14.87;41.85
68654;BME280;55636;51.108;13.622;2023-01-01T05:00:53;100339.81;;;14.87;42.03
68654;BME280;55636;51.108;13.622;2023-01-01T05:01:56;100330.38;;;14.88;41.76
68654;BME280;55636;51.108;13.622;2023-01-01T05:02:59;100329.84;;;14.86;42.06
68654;BME280;55636;51.108;13.622;2023-01-01T05:04:01;100332.31;;;14.87;41.72
68654;BME280;55636;51.108;13.622;2023-01-01T05:05:04;100332.63;;;14.86;42.03
68654;BME280;55636;51.108;13.622;2023-01-01T05:06:09;100332.63;;;14.86;41.89
68654;BME280;55636;51.108;13.622;2023-01-01T05:07:12;100342.91;;;14.85;42.11
68654;BME280;55636;51.108;13.622;2023-01-01T05:08:14;100338.19;;;14.86;42.14
68654;BME280;55636;51.108;13.622;2023-01-01T05:09:17;100341.22;;;14.84;41.91
68654;BME280;55636;51.108;13.622;2023-01-01T05:10:19;100342.09;;;14.85;42.00
68654;BME280;55636;51.108;13.622;2023-01-01T05:11:25;100337.63;;;14.84;41.82
68654;BME280;55636;51.108;13.622;2023-01-01T05:12:28;100334.03;;;14.83;41.91
68654;BME280;55636;51.108;13.622;2023-01-01T05:13:30;100339.59;;;14.83;42.04
68654;BME280;55636;51.108;13.622;2023-01-01T05:14:35;100332.88;;;14.84;41.96
68654;BME280;55636;51.108;13.622;2023-01-01T05:15:37;100332.88;;;14.84;42.15
68654;BME280;55636;51.108;13.622;2023-01-01T05:16:40;100330.41;;;14.82;42.11
68654;BME280;55636;51.108;13.622;2023-01-01T05:17:42;100339.59;;;14.83;42.05
68654;BME280;55636;51.108;13.622;2023-01-01T05:18:46;100338.75;;;14.82;42.13
68654;BME280;55636;51.108;13.622;2023-01-01T05:19:48;100339.59;;;14.83;42.04
68654;BME280;55636;51.108;13.622;2023-01-01T05:20:50;100339.59;;;14.83;41.80
68654;BME280;55636;51.108;13.622;2023-01-01T05:21:53;100333.47;;;14.81;41.84
68654;BME280;55636;51.108;13.622;2023-01-01T05:22:55;100337.06;;;14.81;41.89
68654;BME280;55636;51.108;13.622;2023-01-01T05:24:02;100331.53;;;14.81;41.79
68654;BME280;55636;51.108;13.622;2023-01-01T05:25:05;100338.22;;;14.80;41.74
68654;BME280;55636;51.108;13.622;2023-01-01T05:27:14;100332.94;;;14.79;41.94
68654;BME280;55636;51.108;13.622;2023-01-01T05:28:16;100339.34;;;14.79;42.21
68654;BME280;55636;51.108;13.622;2023-01-01T05:29:18;100335.72;;;14.79;42.12
68654;BME280;55636;51.108;13.622;2023-01-01T05:30:20;100337.66;;;14.78;41.84
68654;BME280;55636;51.108;13.622;2023-01-01T05:31:27;100344.91;;;14.79;42.08
68654;BME280;55636;51.108;13.622;2023-01-01T05:32:29;100342.94;;;14.80;41.98
68654;BME280;55636;51.108;13.622;2023-01-01T05:33:33;100344.91;;;14.79;42.07
68654;BME280;55636;51.108;13.622;2023-01-01T05:34:36;100344.06;;;14.79;41.76
68654;BME280;55636;51.108;13.622;2023-01-01T05:35:37;100344.06;;;14.79;42.03
68654;BME280;55636;51.108;13.622;2023-01-01T05:36:39;100347.69;;;14.79;42.06
68654;BME280;55636;51.108;13.622;2023-01-01T05:37:41;100349.34;;;14.80;42.29
68654;BME280;55636;51.108;13.622;2023-01-01T05:38:44;100345.72;;;14.80;41.97
68654;BME280;55636;51.108;13.622;2023-01-01T05:39:46;100341.81;;;14.81;42.17
68654;BME280;55636;51.108;13.622;2023-01-01T05:40:50;100333.78;;;14.79;42.11
68654;BME280;55636;51.108;13.622;2023-01-01T05:41:52;100342.13;;;14.79;42.09
68654;BME280;55636;51.108;13.622;2023-01-01T05:42:54;100341.81;;;14.81;41.79
68654;BME280;55636;51.108;13.622;2023-01-01T05:43:57;100338.22;;;14.80;41.98
68654;BME280;55636;51.108;13.622;2023-01-01T05:44:59;100345.41;;;14.81;41.84
68654;BME280;55636;51.108;13.622;2023-01-01T05:46:03;100341.81;;;14.81;41.89
68654;BME280;55636;51.108;13.622;2023-01-01T05:47:06;100339.84;;;14.81;41.76
68654;BME280;55636;51.108;13.622;2023-01-01T05:48:10;100345.16;;;14.83;41.72
68654;BME280;55636;51.108;13.622;2023-01-01T05:49:12;100343.19;;;14.84;41.70
68654;BME280;55636;51.108;13.622;2023-01-01T05:50:14;100340.16;;;14.80;41.76
68654;BME280;55636;51.108;13.622;2023-01-01T05:51:19;100347.38;;;14.81;41.71
68654;BME280;55636;51.108;13.622;2023-01-01T05:52:22;100344.59;;;14.81;41.95
68654;BME280;55636;51.108;13.622;2023-01-01T05:53:28;100347.09;;;14.82;41.60
68654;BME280;55636;51.108;13.622;2023-01-01T05:54:34;100346.28;;;14.82;42.02
68654;BME280;55636;51.108;13.622;2023-01-01T05:55:36;100343.50;;;14.82;42.05
68654;BME280;55636;51.108;13.622;2023-01-01T05:56:38;100339.59;;;14.83;41.85
68654;BME280;55636;51.108;13.622;2023-01-01T05:57:41;100341.22;;;14.84;41.79